createdAt,value
2022-12-31T00:02:02.416Z,1.93
2022-12-31T00:06:31.798Z,1.88
2022-12-31T00:10:39.417Z,1.85
2022-12-31T00:14:41.314Z,1.82
2022-12-31T00:18:49.518Z,1.80
2022-12-31T00:22:51.479Z,1.81
2022-12-31T00:26:53.358Z,1.80
2022-12-31T00:30:55.284Z,1.78
2022-12-31T00:34:57.188Z,1.77
2022-12-31T00:39:00.766Z,1.76
2022-12-31T00:43:02.611Z,1.74
2022-12-31T00:47:04.572Z,1.71
2022-12-31T00:51:10.734Z,1.67
2022-12-31T00:55:12.617Z,1.63
2022-12-31T00:59:14.489Z,1.60
2022-12-31T01:03:16.408Z,1.61
2022-12-31T01:07:18.423Z,1.63
2022-12-31T01:11:23.446Z,1.66
2022-12-31T01:15:25.908Z,1.70
2022-12-31T01:19:28.935Z,1.75
2022-12-31T01:23:31.129Z,1.80
2022-12-31T01:27:33.035Z,1.85
2022-12-31T01:31:36.587Z,1.89
2022-12-31T01:35:38.495Z,1.95
2022-12-31T01:39:40.420Z,2.01
2022-12-31T01:43:54.912Z,2.06
2022-12-31T01:47:59.179Z,2.09
2022-12-31T01:52:20.877Z,2.12
2022-12-31T01:56:23.913Z,2.12
2022-12-31T02:00:25.954Z,2.13
2022-12-31T02:04:28.875Z,2.14
2022-12-31T02:08:31.195Z,2.15
2022-12-31T02:12:34.917Z,2.17
2022-12-31T02:17:03.111Z,2.19
2022-12-31T02:21:26.558Z,2.22
2022-12-31T02:26:07.825Z,2.28
2022-12-31T02:30:16.841Z,2.31
2022-12-31T02:34:24.428Z,2.33
2022-12-31T02:38:37.852Z,2.35
2022-12-31T02:42:39.754Z,2.39
2022-12-31T02:46:51.148Z,2.43
2022-12-31T02:51:11.389Z,2.48
2022-12-31T02:55:40.856Z,2.53
2022-12-31T03:00:20.380Z,2.58
2022-12-31T03:04:33.667Z,2.61
2022-12-31T03:08:55.798Z,2.64
2022-12-31T03:12:58.180Z,2.67
2022-12-31T03:17:00.348Z,2.71
2022-12-31T03:21:21.135Z,2.75
2022-12-31T03:25:35.564Z,2.78
2022-12-31T03:29:37.573Z,2.81
2022-12-31T03:33:41.243Z,2.84
2022-12-31T03:37:43.630Z,2.88
2022-12-31T03:41:45.499Z,2.90
2022-12-31T03:45:50.818Z,2.90
2022-12-31T03:49:52.994Z,2.92
2022-12-31T03:53:54.958Z,2.96
2022-12-31T03:57:56.820Z,3.01
2022-12-31T04:01:58.840Z,3.06
2022-12-31T04:06:00.811Z,3.12
2022-12-31T04:10:04.771Z,3.19
2022-12-31T04:14:06.675Z,3.23
2022-12-31T04:18:08.605Z,3.26
2022-12-31T04:22:10.488Z,3.28
2022-12-31T04:26:12.408Z,3.32
2022-12-31T04:30:14.791Z,3.38
2022-12-31T04:34:16.689Z,3.45
2022-12-31T04:38:18.532Z,3.50
2022-12-31T04:42:20.441Z,3.57
2022-12-31T04:46:33.307Z,3.64
2022-12-31T04:50:35.218Z,3.68
2022-12-31T04:54:37.091Z,3.71
2022-12-31T04:58:40.522Z,3.74
2022-12-31T05:02:42.489Z,3.79
2022-12-31T05:06:44.825Z,3.85
2022-12-31T05:10:48.781Z,3.92
2022-12-31T05:14:50.609Z,3.96
2022-12-31T05:18:52.502Z,4.00
2022-12-31T05:22:54.962Z,4.02
2022-12-31T05:26:57.844Z,4.05
2022-12-31T05:31:00.226Z,4.10
2022-12-31T05:35:02.835Z,4.16
2022-12-31T05:39:04.716Z,4.22
2022-12-31T05:43:06.720Z,4.25
2022-12-31T05:47:08.537Z,4.24
2022-12-31T05:51:10.424Z,4.23
2022-12-31T05:55:12.800Z,4.24
2022-12-31T05:59:14.662Z,4.26
2022-12-31T06:03:16.752Z,4.28
2022-12-31T06:07:18.814Z,4.30
2022-12-31T06:11:20.878Z,4.30
2022-12-31T06:15:22.809Z,4.30
2022-12-31T06:19:24.830Z,4.32
2022-12-31T06:23:27.293Z,4.39
2022-12-31T06:27:29.155Z,4.45
2022-12-31T06:31:31.247Z,4.52
2022-12-31T06:35:33.267Z,4.57
2022-12-31T06:39:35.138Z,4.60
2022-12-31T06:43:38.220Z,4.61
2022-12-31T06:47:40.197Z,4.64
2022-12-31T06:51:42.085Z,4.70
2022-12-31T06:55:44.356Z,4.77
2022-12-31T06:59:46.558Z,4.86
2022-12-31T07:04:00.980Z,4.93
2022-12-31T07:08:44.358Z,4.99
2022-12-31T07:13:05.142Z,5.01
2022-12-31T07:17:27.267Z,5.05
2022-12-31T07:21:38.681Z,5.11
2022-12-31T07:25:50.133Z,5.18
2022-12-31T07:30:04.022Z,5.24
2022-12-31T07:34:33.475Z,5.29
2022-12-31T07:39:00.437Z,5.33
2022-12-31T07:43:11.373Z,5.40
2022-12-31T07:47:22.300Z,5.48
2022-12-31T07:51:24.692Z,5.53
2022-12-31T07:55:27.049Z,5.56
2022-12-31T08:00:01.465Z,5.60
2022-12-31T08:04:23.024Z,5.66
2022-12-31T08:08:41.255Z,5.75
2022-12-31T08:12:45.037Z,5.83
2022-12-31T08:16:47.398Z,5.89
2022-12-31T08:21:04.249Z,5.92
2022-12-31T08:25:25.013Z,5.96
2022-12-31T08:29:32.707Z,6.02
2022-12-31T08:33:43.555Z,6.08
2022-12-31T08:38:02.888Z,6.17
2022-12-31T08:42:37.706Z,6.21
2022-12-31T08:46:55.349Z,6.21
2022-12-31T08:50:57.615Z,6.24
2022-12-31T08:54:59.861Z,6.28
2022-12-31T08:59:17.316Z,6.33
2022-12-31T09:03:50.213Z,6.39
2022-12-31T09:07:58.071Z,6.43
2022-12-31T09:12:05.709Z,6.43
2022-12-31T09:16:35.255Z,6.45
2022-12-31T09:20:45.231Z,6.48
2022-12-31T09:24:47.821Z,6.53
2022-12-31T09:28:49.719Z,6.59
2022-12-31T09:33:07.889Z,6.64
2022-12-31T09:37:28.992Z,6.68
2022-12-31T09:41:42.690Z,6.74
2022-12-31T09:45:47.235Z,6.84
2022-12-31T09:49:54.970Z,6.94
2022-12-31T09:54:21.869Z,7.03
2022-12-31T09:58:32.541Z,7.10
2022-12-31T10:03:14.323Z,7.16
2022-12-31T10:07:31.628Z,7.28
2022-12-31T10:12:04.219Z,7.38
2022-12-31T10:16:15.405Z,7.51
2022-12-31T10:20:46.990Z,7.58
2022-12-31T10:25:16.898Z,7.64
2022-12-31T10:29:39.538Z,7.76
2022-12-31T10:33:53.946Z,7.94
2022-12-31T10:38:01.683Z,8.15
2022-12-31T10:42:57.310Z,8.30
2022-12-31T10:47:20.428Z,8.41
2022-12-31T10:51:46.935Z,8.50
2022-12-31T10:56:13.217Z,8.59
2022-12-31T11:00:22.802Z,8.70
2022-12-31T11:05:05.601Z,8.78
2022-12-31T11:09:16.277Z,8.83
2022-12-31T11:13:45.492Z,8.88
2022-12-31T11:18:17.403Z,8.94
2022-12-31T11:22:22.412Z,9.03
2022-12-31T11:26:27.336Z,9.07
2022-12-31T11:31:07.477Z,9.07
2022-12-31T11:35:40.301Z,9.10
2022-12-31T11:40:16.779Z,9.16
2022-12-31T11:44:46.992Z,9.22
2022-12-31T11:48:56.538Z,9.31
2022-12-31T11:53:04.685Z,9.38
2022-12-31T11:57:26.748Z,9.44
2022-12-31T12:01:42.490Z,9.47
2022-12-31T12:05:44.491Z,9.48
2022-12-31T12:09:46.756Z,9.49
2022-12-31T12:13:49.016Z,9.55
2022-12-31T12:17:58.160Z,9.64
2022-12-31T12:22:28.726Z,9.72
2022-12-31T12:26:35.596Z,9.78
2022-12-31T12:30:40.804Z,9.83
2022-12-31T12:34:49.181Z,9.86
2022-12-31T12:39:06.211Z,9.92
2022-12-31T12:43:22.887Z,9.99
2022-12-31T12:47:25.808Z,10.05
2022-12-31T12:51:46.182Z,10.05
2022-12-31T12:56:02.582Z,10.05
2022-12-31T13:00:21.772Z,10.07
2022-12-31T13:05:03.542Z,10.05
2022-12-31T13:09:21.890Z,10.01
2022-12-31T13:13:26.992Z,10.00
2022-12-31T13:17:32.081Z,10.00
2022-12-31T13:21:48.009Z,10.00
2022-12-31T13:26:16.070Z,10.00
2022-12-31T13:30:30.523Z,9.97
2022-12-31T13:34:40.625Z,9.95
2022-12-31T13:38:50.281Z,9.96
2022-12-31T13:42:59.987Z,9.97
2022-12-31T13:47:24.193Z,9.97
2022-12-31T13:51:41.568Z,9.94
2022-12-31T13:55:57.461Z,9.90
2022-12-31T14:00:03.817Z,9.88
2022-12-31T14:04:18.078Z,9.87
2022-12-31T14:08:20.049Z,9.88
2022-12-31T14:13:03.716Z,9.88
2022-12-31T14:17:10.849Z,9.87
2022-12-31T14:21:41.955Z,9.84
2022-12-31T14:25:49.414Z,9.79
2022-12-31T14:29:56.720Z,9.77
2022-12-31T14:34:10.654Z,9.78
2022-12-31T14:38:19.007Z,9.81
2022-12-31T14:42:39.871Z,9.84
2022-12-31T14:47:00.170Z,9.86
2022-12-31T14:51:03.895Z,9.88
2022-12-31T14:55:08.933Z,9.88
2022-12-31T14:59:29.840Z,9.88
2022-12-31T15:03:33.204Z,9.91
2022-12-31T15:07:47.733Z,9.94
2022-12-31T15:11:58.768Z,9.98
2022-12-31T15:16:17.761Z,10.04
2022-12-31T15:20:44.127Z,10.10
2022-12-31T15:24:47.290Z,10.11
2022-12-31T15:29:23.793Z,10.13
2022-12-31T15:33:39.853Z,10.16
2022-12-31T15:37:41.709Z,10.19
2022-12-31T15:42:36.056Z,10.21
2022-12-31T15:46:28.626Z,10.20
2022-12-31T15:50:31.253Z,10.21
2022-12-31T15:54:42.050Z,10.23
2022-12-31T15:58:47.188Z,10.25
2022-12-31T16:02:53.900Z,10.29
2022-12-31T16:07:02.524Z,10.33
2022-12-31T16:11:09.486Z,10.34
2022-12-31T16:15:24.450Z,10.36
2022-12-31T16:19:34.226Z,10.41
2022-12-31T16:23:42.385Z,10.44
2022-12-31T16:27:44.765Z,10.47
2022-12-31T16:31:48.968Z,10.50
2022-12-31T16:35:59.417Z,10.52
2022-12-31T16:40:24.316Z,10.54
2022-12-31T16:44:28.112Z,10.60
2022-12-31T16:48:29.985Z,10.66
2022-12-31T16:52:45.519Z,10.73
2022-12-31T16:56:47.753Z,10.79
2022-12-31T17:00:50.988Z,10.83
2022-12-31T17:04:56.240Z,10.89
2022-12-31T17:09:09.572Z,10.94
2022-12-31T17:13:29.372Z,11.02
2022-12-31T17:17:36.810Z,11.08
2022-12-31T17:21:47.169Z,11.11
2022-12-31T17:25:49.110Z,11.15
2022-12-31T17:29:51.041Z,11.20
2022-12-31T17:33:54.658Z,11.24
2022-12-31T17:38:22.327Z,11.30
2022-12-31T17:42:26.999Z,11.36
2022-12-31T17:46:39.904Z,11.38
2022-12-31T17:50:59.522Z,11.40
2022-12-31T17:55:01.461Z,11.44
2022-12-31T17:59:04.731Z,11.50
2022-12-31T18:03:06.630Z,11.54
2022-12-31T18:07:08.560Z,11.59
2022-12-31T18:11:19.901Z,11.63
2022-12-31T18:15:23.357Z,11.66
2022-12-31T18:19:54.286Z,11.68
2022-12-31T18:23:48.015Z,11.70
2022-12-31T18:27:51.096Z,11.72
2022-12-31T18:31:53.464Z,11.75
2022-12-31T18:36:08.749Z,11.77
2022-12-31T18:40:13.122Z,11.77
2022-12-31T18:44:15.877Z,11.76
2022-12-31T18:48:18.291Z,11.78
2022-12-31T18:52:22.444Z,11.80
2022-12-31T18:56:25.078Z,11.82
2022-12-31T19:00:26.961Z,11.81
2022-12-31T19:04:29.235Z,11.80
2022-12-31T19:08:32.495Z,11.82
2022-12-31T19:12:34.410Z,11.84
2022-12-31T19:16:36.338Z,11.87
2022-12-31T19:20:40.585Z,11.88
2022-12-31T19:24:42.569Z,11.87
2022-12-31T19:28:45.493Z,11.87
2022-12-31T19:32:47.491Z,11.90
2022-12-31T19:36:49.373Z,11.94
2022-12-31T19:40:53.029Z,11.98
2022-12-31T19:44:55.166Z,11.99
2022-12-31T19:48:57.146Z,12.02
2022-12-31T19:52:59.934Z,12.07
2022-12-31T19:57:01.779Z,12.11
2022-12-31T20:01:04.188Z,12.15
2022-12-31T20:05:07.050Z,12.16
2022-12-31T20:09:11.108Z,12.14
2022-12-31T20:13:12.942Z,12.13
2022-12-31T20:17:16.270Z,12.14
2022-12-31T20:21:24.370Z,12.12
2022-12-31T20:25:26.289Z,12.09
2022-12-31T20:29:28.315Z,12.04
2022-12-31T20:33:30.499Z,11.99
2022-12-31T20:37:32.918Z,11.94
2022-12-31T20:41:34.977Z,11.88
2022-12-31T20:45:39.841Z,11.86
2022-12-31T20:54:07.323Z,11.82
2022-12-31T20:58:09.171Z,11.77
2022-12-31T21:02:26.539Z,11.72
2022-12-31T21:06:37.343Z,11.67
2022-12-31T21:10:39.222Z,11.66
2022-12-31T21:14:44.684Z,11.66
2022-12-31T21:18:46.954Z,11.61
2022-12-31T21:22:48.843Z,11.56
2022-12-31T21:26:54.006Z,11.50
2022-12-31T21:31:04.747Z,11.47
2022-12-31T21:35:41.196Z,11.45
2022-12-31T21:39:28.722Z,11.42
2022-12-31T21:43:30.933Z,11.39
2022-12-31T21:47:51.441Z,11.34
2022-12-31T21:52:25.768Z,11.29
2022-12-31T21:56:27.756Z,11.27
2022-12-31T22:00:48.679Z,11.27
2022-12-31T22:05:17.289Z,11.26
2022-12-31T22:09:13.227Z,11.23
2022-12-31T22:13:16.174Z,11.18
2022-12-31T22:17:18.033Z,11.13
2022-12-31T22:21:24.863Z,11.09
2022-12-31T22:25:26.788Z,11.08
2022-12-31T22:29:28.698Z,11.06
2022-12-31T22:33:30.820Z,11.01
2022-12-31T22:41:54.962Z,10.89
2022-12-31T22:45:56.809Z,10.87
2022-12-31T22:49:58.855Z,10.87
2022-12-31T22:54:00.723Z,10.85
2022-12-31T22:58:02.595Z,10.82
2022-12-31T23:02:04.491Z,10.77
2022-12-31T23:06:06.418Z,10.75
2022-12-31T23:10:27.621Z,10.77
2022-12-31T23:14:48.240Z,10.81
2022-12-31T23:19:09.199Z,10.86
2022-12-31T23:23:15.950Z,10.89
2022-12-31T23:27:17.849Z,10.88
2022-12-31T23:31:19.813Z,10.89
2022-12-31T23:35:21.957Z,10.89
2022-12-31T23:39:24.044Z,10.91
2022-12-31T23:43:26.402Z,10.93
2022-12-31T23:47:28.253Z,10.93
2022-12-31T23:51:30.180Z,10.93
2022-12-31T23:55:32.469Z,10.93
2022-12-31T23:59:34.324Z,10.94
